sensor_id;sensor_type;location;lat;lon;timestamp;pressure;altitude;pressure_sealevel;temperature;humidity
15487;BME280;7845;53.698;10.078;2023-04-27T00:01:25;101572.94;;;9.28;100.00
15487;BME280;7845;53.698;10.078;2023-04-27T00:03:53;101575.38;;;9.13;100.00
15487;BME280;7845;53.698;10.078;2023-04-27T00:06:18;101574.44;;;9.08;100.00
15487;BME280;7845;53.698;10.078;2023-04-27T00:08:44;101573.69;;;9.18;100.00
15487;BME280;7845;53.698;10.078;2023-04-27T00:11:09;101570.28;;;9.24;100.00
15487;BME280;7845;53.698;10.078;2023-04-27T00:13:35;101565.91;;;9.21;100.00
15487;BME280;7845;53.698;10.078;2023-04-27T00:16:07;101565.03;;;9.21;100.00
15487;BME280;7845;53.698;10.078;2023-04-27T00:18:32;101572.84;;;9.19;100.00
15487;BME280;7845;53.698;10.078;2023-04-27T00:20:58;101568.97;;;8.85;100.00
15487;BME280;7845;53.698;10.078;2023-04-27T00:23:23;101563.06;;;8.99;100.00
15487;BME280;7845;53.698;10.078;2023-04-27T00:25:48;101557.91;;;9.03;100.00
15487;BME280;7845;53.698;10.078;2023-04-27T00:28:14;101557.88;;;9.00;100.00
15487;BME280;7845;53.698;10.078;2023-04-27T00:30:40;101559.59;;;8.98;100.00
15487;BME280;7845;53.698;10.078;2023-04-27T00:33:06;101557.91;;;9.03;100.00
15487;BME280;7845;53.698;10.078;2023-04-27T00:35:32;101555.25;;;9.00;100.00
15487;BME280;7845;53.698;10.078;2023-04-27T00:37:57;101556.16;;;9.04;100.00
15487;BME280;7845;53.698;10.078;2023-04-27T00:40:23;101558.59;;;8.90;100.00
15487;BME280;7845;53.698;10.078;2023-04-27T00:42:48;101566.41;;;8.88;100.00
15487;BME280;7845;53.698;10.078;2023-04-27T00:45:13;101566.34;;;8.81;100.00
15487;BME280;7845;53.698;10.078;2023-04-27T00:47:39;101563.81;;;8.90;100.00
15487;BME280;7845;53.698;10.078;2023-04-27T00:50:05;101556.88;;;8.89;100.00
15487;BME280;7845;53.698;10.078;2023-04-27T00:52:34;101555.22;;;8.96;100.00
15487;BME280;7845;53.698;10.078;2023-04-27T00:55:01;101564.81;;;9.01;100.00
15487;BME280;7845;53.698;10.078;2023-04-27T00:57:28;101565.59;;;8.94;100.00
15487;BME280;7845;53.698;10.078;2023-04-27T00:59:53;101567.31;;;8.94;100.00
15487;BME280;7845;53.698;10.078;2023-04-27T01:02:18;101570.81;;;8.94;100.00
15487;BME280;7845;53.698;10.078;2023-04-27T01:04:44;101573.25;;;8.82;100.00
15487;BME280;7845;53.698;10.078;2023-04-27T01:07:09;101572.41;;;8.84;100.00
15487;BME280;7845;53.698;10.078;2023-04-27T01:09:34;101580.16;;;8.77;100.00
15487;BME280;7845;53.698;10.078;2023-04-27T01:12:02;101579.34;;;8.81;100.00
15487;BME280;7845;53.698;10.078;2023-04-27T01:14:28;101580.16;;;8.77;100.00
15487;BME280;7845;53.698;10.078;2023-04-27T01:16:54;101573.03;;;8.62;100.00
15487;BME280;7845;53.698;10.078;2023-04-27T01:19:19;101581.63;;;8.58;100.00
15487;BME280;7845;53.698;10.078;2023-04-27T01:21:44;101580.84;;;8.62;100.00
15487;BME280;7845;53.698;10.078;2023-04-27T01:24:10;101583.53;;;8.70;100.00
15487;BME280;7845;53.698;10.078;2023-04-27T01:26:36;101578.34;;;8.73;100.00
15487;BME280;7845;53.698;10.078;2023-04-27T01:29:01;101588.97;;;8.86;100.00
15487;BME280;7845;53.698;10.078;2023-04-27T01:31:27;101593.41;;;8.95;100.00
15487;BME280;7845;53.698;10.078;2023-04-27T01:33:52;101591.41;;;8.76;100.00
15487;BME280;7845;53.698;10.078;2023-04-27T01:36:18;101600.28;;;8.92;100.00
15487;BME280;7845;53.698;10.078;2023-04-27T01:38:43;101606.97;;;8.73;100.00
15487;BME280;7845;53.698;10.078;2023-04-27T01:41:08;101612.28;;;8.79;100.00
15487;BME280;7845;53.698;10.078;2023-04-27T01:43:34;101613.31;;;8.93;100.00
15487;BME280;7845;53.698;10.078;2023-04-27T01:46:12;101610.94;;;9.10;100.00
15487;BME280;7845;53.698;10.078;2023-04-27T01:48:40;101606.75;;;9.22;100.00
15487;BME280;7845;53.698;10.078;2023-04-27T01:51:06;101604.13;;;9.24;100.00
15487;BME280;7845;53.698;10.078;2023-04-27T01:53:31;101602.31;;;9.15;100.00
15487;BME280;7845;53.698;10.078;2023-04-27T01:55:57;101598.06;;;9.25;100.00
15487;BME280;7845;53.698;10.078;2023-04-27T01:58:24;101595.47;;;9.26;100.00
15487;BME280;7845;53.698;10.078;2023-04-27T02:00:49;101598.91;;;9.24;100.00
15487;BME280;7845;53.698;10.078;2023-04-27T02:03:14;101608.59;;;9.34;100.00
15487;BME280;7845;53.698;10.078;2023-04-27T02:05:40;101618.88;;;9.22;100.00
15487;BME280;7845;53.698;10.078;2023-04-27T02:08:06;101620.53;;;9.15;100.00
15487;BME280;7845;53.698;10.078;2023-04-27T02:10:31;101626.19;;;8.82;100.00
15487;BME280;7845;53.698;10.078;2023-04-27T02:12:56;101626.56;;;9.11;100.00
15487;BME280;7845;53.698;10.078;2023-04-27T02:15:22;101622.38;;;9.22;100.00
15487;BME280;7845;53.698;10.078;2023-04-27T02:17:48;101625.06;;;9.31;100.00
15487;BME280;7845;53.698;10.078;2023-04-27T02:20:13;101623.34;;;9.33;100.00
15487;BME280;7845;53.698;10.078;2023-04-27T02:22:43;101621.69;;;9.40;100.00
15487;BME280;7845;53.698;10.078;2023-04-27T02:25:09;101622.69;;;9.53;100.00
15487;BME280;7845;53.698;10.078;2023-04-27T02:27:40;101613.94;;;9.48;100.00
15487;BME280;7845;53.698;10.078;2023-04-27T02:30:09;101615.78;;;9.58;100.00
15487;BME280;7845;53.698;10.078;2023-04-27T02:32:36;101612.38;;;9.65;100.00
15487;BME280;7845;53.698;10.078;2023-04-27T02:35:02;101614.13;;;9.64;100.00
15487;BME280;7845;53.698;10.078;2023-04-27T02:37:27;101617.66;;;9.72;100.00
15487;BME280;7845;53.698;10.078;2023-04-27T02:39:53;101611.63;;;9.78;100.00
15487;BME280;7845;53.698;10.078;2023-04-27T02:42:18;101605.53;;;9.77;100.00
15487;BME280;7845;53.698;10.078;2023-04-27T02:44:45;101612.44;;;9.74;100.00
15487;BME280;7845;53.698;10.078;2023-04-27T02:47:11;101615.09;;;9.75;100.00
15487;BME280;7845;53.698;10.078;2023-04-27T02:49:37;101614.19;;;9.72;100.00
15487;BME280;7845;53.698;10.078;2023-04-27T02:52:02;101611.50;;;9.61;100.00
15487;BME280;7845;53.698;10.078;2023-04-27T02:54:30;101613.09;;;9.50;100.00
15487;BME280;7845;53.698;10.078;2023-04-27T02:56:55;101611.28;;;9.41;100.00
15487;BME280;7845;53.698;10.078;2023-04-27T02:59:21;101608.56;;;9.31;100.00
15487;BME280;7845;53.698;10.078;2023-04-27T03:01:46;101618.00;;;9.20;100.00
15487;BME280;7845;53.698;10.078;2023-04-27T03:04:15;101621.38;;;9.14;100.00
15487;BME280;7845;53.698;10.078;2023-04-27T03:06:42;101629.31;;;9.22;100.00
15487;BME280;7845;53.698;10.078;2023-04-27T03:09:08;101631.00;;;9.17;100.00
15487;BME280;7845;53.698;10.078;2023-04-27T03:11:37;101635.91;;;8.93;100.00
15487;BME280;7845;53.698;10.078;2023-04-27T03:14:03;101647.22;;;8.98;100.00
15487;BME280;7845;53.698;10.078;2023-04-27T03:16:31;101647.28;;;9.01;100.00
15487;BME280;7845;53.698;10.078;2023-04-27T03:18:56;101639.69;;;9.20;100.00
15487;BME280;7845;53.698;10.078;2023-04-27T03:21:21;101634.00;;;9.56;100.00
15487;BME280;7845;53.698;10.078;2023-04-27T03:23:47;101623.69;;;9.68;100.00
15487;BME280;7845;53.698;10.078;2023-04-27T03:26:13;101629.88;;;9.78;100.00
15487;BME280;7845;53.698;10.078;2023-04-27T03:28:39;101615.03;;;9.71;100.00
15487;BME280;7845;53.698;10.078;2023-04-27T03:31:05;101623.72;;;9.71;100.00
15487;BME280;7845;53.698;10.078;2023-04-27T03:33:31;101621.06;;;9.65;100.00
15487;BME280;7845;53.698;10.078;2023-04-27T03:35:57;101628.75;;;9.53;100.00
15487;BME280;7845;53.698;10.078;2023-04-27T03:38:24;101628.63;;;9.39;100.00
15487;BME280;7845;53.698;10.078;2023-04-27T03:40:50;101634.63;;;9.32;100.00
15487;BME280;7845;53.698;10.078;2023-04-27T03:43:17;101631.13;;;9.30;100.00
15487;BME280;7845;53.698;10.078;2023-04-27T03:45:45;101626.56;;;9.11;100.00
15487;BME280;7845;53.698;10.078;2023-04-27T03:48:14;101630.91;;;9.12;100.00
15487;BME280;7845;53.698;10.078;2023-04-27T03:50:41;101634.31;;;9.08;100.00
15487;BME280;7845;53.698;10.078;2023-04-27T03:53:06;101634.28;;;9.05;100.00
15487;BME280;7845;53.698;10.078;2023-04-27T03:55:38;101632.44;;;8.95;100.00
15487;BME280;7845;53.698;10.078;2023-04-27T03:58:04;101636.81;;;8.99;100.00
15487;BME280;7845;53.698;10.078;2023-04-27T04:00:29;101636.78;;;8.96;100.00
15487;BME280;7845;53.698;10.078;2023-04-27T04:02:55;101638.50;;;8.93;100.00
15487;BME280;7845;53.698;10.078;2023-04-27T04:05:21;101645.34;;;8.86;100.00
15487;BME280;7845;53.698;10.078;2023-04-27T04:07:46;101637.53;;;8.87;100.00
15487;BME280;7845;53.698;10.078;2023-04-27T04:10:13;101642.06;;;9.01;100.00
15487;BME280;7845;53.698;10.078;2023-04-27T04:12:38;101645.97;;;8.68;100.00
15487;BME280;7845;53.698;10.078;2023-04-27T04:15:04;101650.59;;;8.89;100.00
15487;BME280;7845;53.698;10.078;2023-04-27T04:17:29;101654.88;;;8.87;100.00
15487;BME280;7845;53.698;10.078;2023-04-27T04:19:55;101650.09;;;9.19;100.00
15487;BME280;7845;53.698;10.078;2023-04-27T04:22:20;101652.16;;;9.45;100.00
15487;BME280;7845;53.698;10.078;2023-04-27T04:24:46;101648.81;;;9.60;100.00
15487;BME280;7845;53.698;10.078;2023-04-27T04:27:12;101649.03;;;9.83;100.00
15487;BME280;7845;53.698;10.078;2023-04-27T04:29:38;101664.91;;;10.06;100.00
15487;BME280;7845;53.698;10.078;2023-04-27T04:32:04;101649.28;;;10.10;100.00
15487;BME280;7845;53.698;10.078;2023-04-27T04:34:29;101655.53;;;10.26;100.00
15487;BME280;7845;53.698;10.078;2023-04-27T04:36:55;101647.84;;;10.44;100.00
15487;BME280;7845;53.698;10.078;2023-04-27T04:39:29;101646.13;;;10.49;100.00
15487;BME280;7845;53.698;10.078;2023-04-27T04:41:55;101635.63;;;10.38;100.00
15487;BME280;7845;53.698;10.078;2023-04-27T04:44:20;101638.19;;;10.34;100.00
15487;BME280;7845;53.698;10.078;2023-04-27T04:46:46;101643.50;;;10.46;100.00
15487;BME280;7845;53.698;10.078;2023-04-27T04:49:11;101648.81;;;10.61;100.00
15487;BME280;7845;53.698;10.078;2023-04-27T04:51:43;101644.50;;;10.68;100.00
15487;BME280;7845;53.698;10.078;2023-04-27T04:54:09;101651.53;;;10.78;100.00
15487;BME280;7845;53.698;10.078;2023-04-27T04:56:35;101652.38;;;10.74;100.00
15487;BME280;7845;53.698;10.078;2023-04-27T04:59:01;101653.22;;;10.68;100.00
15487;BME280;7845;53.698;10.078;2023-04-27T05:01:26;101659.13;;;10.41;100.00
15487;BME280;7845;53.698;10.078;2023-04-27T05:03:52;101658.31;;;10.48;100.00
15487;BME280;7845;53.698;10.078;2023-04-27T05:06:18;101664.41;;;10.50;100.00
15487;BME280;7845;53.698;10.078;2023-04-27T05:08:44;101666.16;;;10.50;100.00
15487;BME280;7845;53.698;10.078;2023-04-27T05:11:10;101667.06;;;10.55;100.00
15487;BME280;7845;53.698;10.078;2023-04-27T05:13:36;101661.00;;;10.61;100.00
15487;BME280;7845;53.698;10.078;2023-04-27T05:16:06;101649.97;;;11.16;100.00
15487;BME280;7845;53.698;10.078;2023-04-27T05:18:33;101646.66;;;12.43;100.00
15487;BME280;7845;53.698;10.078;2023-04-27T05:20:59;101626.81;;;13.89;100.00
15487;BME280;7845;53.698;10.078;2023-04-27T05:23:24;101607.03;;;15.25;98.86
15487;BME280;7845;53.698;10.078;2023-04-27T05:25:50;101569.63;;;16.17;85.66
15487;BME280;7845;53.698;10.078;2023-04-27T05:28:15;101573.28;;;16.10;81.17
15487;BME280;7845;53.698;10.078;2023-04-27T05:30:41;101568.91;;;15.55;80.06
15487;BME280;7845;53.698;10.078;2023-04-27T05:33:06;101576.47;;;15.17;80.59
15487;BME280;7845;53.698;10.078;2023-04-27T05:35:32;101592.81;;;14.70;82.11
15487;BME280;7845;53.698;10.078;2023-04-27T05:38:00;101601.97;;;14.28;84.09
15487;BME280;7845;53.698;10.078;2023-04-27T05:40:27;101602.97;;;14.16;86.25
15487;BME280;7845;53.698;10.078;2023-04-27T05:42:53;101598.72;;;14.03;86.91
15487;BME280;7845;53.698;10.078;2023-04-27T05:45:19;101605.91;;;13.77;88.54
15487;BME280;7845;53.698;10.078;2023-04-27T05:47:45;101609.50;;;13.70;89.68
15487;BME280;7845;53.698;10.078;2023-04-27T05:50:10;101603.47;;;13.59;90.12
15487;BME280;7845;53.698;10.078;2023-04-27T05:52:36;101615.84;;;13.34;90.05
15487;BME280;7845;53.698;10.078;2023-04-27T05:55:01;101611.53;;;13.18;91.57
15487;BME280;7845;53.698;10.078;2023-04-27T05:57:27;101618.66;;;12.80;93.78
15487;BME280;7845;53.698;10.078;2023-04-27T05:59:52;101635.34;;;12.01;97.62
15487;BME280;7845;53.698;10.078;2023-04-27T06:02:18;101639.72;;;11.98;100.00
15487;BME280;7845;53.698;10.078;2023-04-27T06:04:44;101653.69;;;11.94;100.00
15487;BME280;7845;53.698;10.078;2023-04-27T06:07:11;101651.03;;;11.77;100.00
15487;BME280;7845;53.698;10.078;2023-04-27T06:09:37;101659.75;;;11.75;100.00
15487;BME280;7845;53.698;10.078;2023-04-27T06:12:04;101666.66;;;11.60;100.00
15487;BME280;7845;53.698;10.078;2023-04-27T06:14:30;101674.44;;;11.39;100.00
15487;BME280;7845;53.698;10.078;2023-04-27T06:16:57;101678.88;;;11.55;100.00
15487;BME280;7845;53.698;10.078;2023-04-27T06:19:24;101678.84;;;11.48;100.00
15487;BME280;7845;53.698;10.078;2023-04-27T06:21:53;101680.56;;;11.40;100.00
15487;BME280;7845;53.698;10.078;2023-04-27T06:24:19;101683.03;;;11.05;100.00
15487;BME280;7845;53.698;10.078;2023-04-27T06:26:44;101680.28;;;10.81;100.00
15487;BME280;7845;53.698;10.078;2023-04-27T06:29:10;101690.09;;;11.30;100.00
15487;BME280;7845;53.698;10.078;2023-04-27T06:31:35;101688.41;;;11.47;100.00
15487;BME280;7845;53.698;10.078;2023-04-27T06:34:01;101688.41;;;11.40;100.00
15487;BME280;7845;53.698;10.078;2023-04-27T06:36:26;101684.97;;;11.57;100.00
15487;BME280;7845;53.698;10.078;2023-04-27T06:38:54;101682.44;;;11.76;100.00
15487;BME280;7845;53.698;10.078;2023-04-27T06:41:21;101685.03;;;11.80;100.00
15487;BME280;7845;53.698;10.078;2023-04-27T06:43:46;101677.22;;;11.85;100.00
15487;BME280;7845;53.698;10.078;2023-04-27T06:46:11;101671.13;;;11.98;100.00
15487;BME280;7845;53.698;10.078;2023-04-27T06:48:38;101671.13;;;11.90;100.00
15487;BME280;7845;53.698;10.078;2023-04-27T06:51:04;101669.34;;;11.76;100.00
15487;BME280;7845;53.698;10.078;2023-04-27T06:53:30;101659.81;;;11.94;100.00
15487;BME280;7845;53.698;10.078;2023-04-27T06:55:56;101659.78;;;11.79;100.00
15487;BME280;7845;53.698;10.078;2023-04-27T06:58:22;101654.56;;;11.97;100.00
15487;BME280;7845;53.698;10.078;2023-04-27T07:00:49;101646.69;;;12.02;100.00
15487;BME280;7845;53.698;10.078;2023-04-27T07:03:15;101655.41;;;12.01;99.82
15487;BME280;7845;53.698;10.078;2023-04-27T07:05:40;101662.41;;;11.88;99.29
15487;BME280;7845;53.698;10.078;2023-04-27T07:08:07;101665.91;;;11.99;100.00
15487;BME280;7845;53.698;10.078;2023-04-27T07:10:33;101672.03;;;12.27;100.00
15487;BME280;7845;53.698;10.078;2023-04-27T07:12:59;101671.06;;;12.80;100.00
15487;BME280;7845;53.698;10.078;2023-04-27T07:15:24;101663.94;;;13.32;97.42
15487;BME280;7845;53.698;10.078;2023-04-27T07:17:51;101665.31;;;13.93;95.72
15487;BME280;7845;53.698;10.078;2023-04-27T07:20:20;101655.50;;;14.15;91.24
15487;BME280;7845;53.698;10.078;2023-04-27T07:22:45;101650.06;;;14.42;90.65
15487;BME280;7845;53.698;10.078;2023-04-27T07:25:10;101657.03;;;14.43;89.08
15487;BME280;7845;53.698;10.078;2023-04-27T07:27:36;101654.53;;;14.25;87.53
15487;BME280;7845;53.698;10.078;2023-04-27T07:30:03;101660.94;;;13.89;88.63
15487;BME280;7845;53.698;10.078;2023-04-27T07:32:31;101656.31;;;14.23;88.96
15487;BME280;7845;53.698;10.078;2023-04-27T07:34:57;101673.22;;;13.87;88.31
15487;BME280;7845;53.698;10.078;2023-04-27T07:37:25;101654.69;;;14.08;85.58
15487;BME280;7845;53.698;10.078;2023-04-27T07:39:50;101653.63;;;14.29;85.25
15487;BME280;7845;53.698;10.078;2023-04-27T07:42:17;101655.94;;;14.64;84.03
15487;BME280;7845;53.698;10.078;2023-04-27T07:44:43;101646.34;;;14.61;82.10
15487;BME280;7845;53.698;10.078;2023-04-27T07:47:08;101653.03;;;14.91;83.57
15487;BME280;7845;53.698;10.078;2023-04-27T07:49:35;101663.03;;;14.57;82.05
15487;BME280;7845;53.698;10.078;2023-04-27T07:52:02;101643.72;;;14.63;80.51
15487;BME280;7845;53.698;10.078;2023-04-27T07:54:28;101646.25;;;14.72;79.31
15487;BME280;7845;53.698;10.078;2023-04-27T07:56:54;101655.13;;;14.60;80.88
15487;BME280;7845;53.698;10.078;2023-04-27T07:59:20;101652.94;;;14.99;79.99
15487;BME280;7845;53.698;10.078;2023-04-27T08:01:46;101658.56;;;14.65;80.58
15487;BME280;7845;53.698;10.078;2023-04-27T08:04:12;101658.28;;;14.91;80.44
15487;BME280;7845;53.698;10.078;2023-04-27T08:06:38;101655.16;;;14.57;79.62
15487;BME280;7845;53.698;10.078;2023-04-27T08:09:04;101645.84;;;15.08;80.29
15487;BME280;7845;53.698;10.078;2023-04-27T08:11:31;101652.66;;;15.21;79.91
15487;BME280;7845;53.698;10.078;2023-04-27T08:13:57;101644.78;;;15.23;78.53
15487;BME280;7845;53.698;10.078;2023-04-27T08:16:23;101639.09;;;15.53;78.48
15487;BME280;7845;53.698;10.078;2023-04-27T08:18:50;101634.47;;;15.70;78.19
15487;BME280;7845;53.698;10.078;2023-04-27T08:21:16;101624.28;;;15.44;73.75
15487;BME280;7845;53.698;10.078;2023-04-27T08:23:42;101629.19;;;15.72;74.23
15487;BME280;7845;53.698;10.078;2023-04-27T08:26:13;101636.97;;;15.79;74.68
15487;BME280;7845;53.698;10.078;2023-04-27T08:28:40;101634.94;;;15.35;74.07
15487;BME280;7845;53.698;10.078;2023-04-27T08:31:05;101642.13;;;15.23;73.94
15487;BME280;7845;53.698;10.078;2023-04-27T08:33:31;101660.31;;;14.65;76.94
15487;BME280;7845;53.698;10.078;2023-04-27T08:35:56;101671.25;;;14.13;81.19
15487;BME280;7845;53.698;10.078;2023-04-27T08:38:21;101678.63;;;13.61;85.08
15487;BME280;7845;53.698;10.078;2023-04-27T08:40:46;101686.50;;;13.61;91.26
15487;BME280;7845;53.698;10.078;2023-04-27T08:43:13;101688.19;;;13.68;93.43
15487;BME280;7845;53.698;10.078;2023-04-27T08:45:48;101685.28;;;14.15;92.09
15487;BME280;7845;53.698;10.078;2023-04-27T08:48:14;101681.56;;;14.40;92.78
15487;BME280;7845;53.698;10.078;2023-04-27T08:50:42;101673.41;;;14.72;91.20
15487;BME280;7845;53.698;10.078;2023-04-27T08:53:18;101666.41;;;14.70;88.20
15487;BME280;7845;53.698;10.078;2023-04-27T08:55:45;101643.94;;;15.18;84.22
15487;BME280;7845;53.698;10.078;2023-04-27T08:58:11;101630.81;;;15.16;81.00
15487;BME280;7845;53.698;10.078;2023-04-27T09:00:41;101618.31;;;15.35;78.67
15487;BME280;7845;53.698;10.078;2023-04-27T09:03:17;101599.94;;;15.32;72.58
15487;BME280;7845;53.698;10.078;2023-04-27T09:05:47;101603.94;;;14.93;73.16
15487;BME280;7845;53.698;10.078;2023-04-27T09:08:12;101603.59;;;15.19;74.79
15487;BME280;7845;53.698;10.078;2023-04-27T09:10:51;101610.38;;;15.36;74.30
15487;BME280;7845;53.698;10.078;2023-04-27T09:13:17;101613.81;;;15.41;74.63
15487;BME280;7845;53.698;10.078;2023-04-27T09:15:46;101615.44;;;14.81;73.27
15487;BME280;7845;53.698;10.078;2023-04-27T09:18:22;101623.81;;;14.39;72.72
15487;BME280;7845;53.698;10.078;2023-04-27T09:20:49;101622.16;;;15.07;74.07
15487;BME280;7845;53.698;10.078;2023-04-27T09:23:32;101620.19;;;14.51;70.98
15487;BME280;7845;53.698;10.078;2023-04-27T09:26:03;101614.00;;;14.55;68.82
15487;BME280;7845;53.698;10.078;2023-04-27T09:28:32;101604.88;;;14.89;68.32
15487;BME280;7845;53.698;10.078;2023-04-27T09:31:00;101603.50;;;14.56;66.81
15487;BME280;7845;53.698;10.078;2023-04-27T09:33:32;101598.13;;;14.64;67.80
15487;BME280;7845;53.698;10.078;2023-04-27T09:35:59;101603.25;;;14.76;67.56
15487;BME280;7845;53.698;10.078;2023-04-27T09:38:26;101594.66;;;14.62;66.92
15487;BME280;7845;53.698;10.078;2023-04-27T09:40:53;101589.16;;;14.83;67.05
15487;BME280;7845;53.698;10.078;2023-04-27T09:43:19;101600.47;;;14.89;68.86
15487;BME280;7845;53.698;10.078;2023-04-27T09:45:47;101579.78;;;15.29;66.09
15487;BME280;7845;53.698;10.078;2023-04-27T09:48:13;101582.84;;;15.62;66.66
15487;BME280;7845;53.698;10.078;2023-04-27T09:50:40;101561.88;;;16.09;63.50
15487;BME280;7845;53.698;10.078;2023-04-27T09:53:08;101568.47;;;16.31;63.96
15487;BME280;7845;53.698;10.078;2023-04-27T10:01:44;101572.88;;;15.82;61.61
15487;BME280;7845;53.698;10.078;2023-04-27T10:07:16;101572.63;;;15.95;60.06
15487;BME280;7845;53.698;10.078;2023-04-27T10:09:44;101569.78;;;16.08;59.43
15487;BME280;7845;53.698;10.078;2023-04-27T10:12:14;101570.28;;;16.29;61.01
15487;BME280;7845;53.698;10.078;2023-04-27T10:14:57;101571.22;;;16.25;60.98
15487;BME280;7845;53.698;10.078;2023-04-27T10:19:55;101569.28;;;16.36;60.42
15487;BME280;7845;53.698;10.078;2023-04-27T10:22:21;101568.25;;;16.89;61.95
15487;BME280;7845;53.698;10.078;2023-04-27T10:24:49;101559.13;;;16.61;59.34
15487;BME280;7845;53.698;10.078;2023-04-27T10:27:17;101576.53;;;16.71;59.54
15487;BME280;7845;53.698;10.078;2023-04-27T10:29:51;101578.34;;;16.68;60.71
15487;BME280;7845;53.698;10.078;2023-04-27T10:32:22;101578.84;;;16.86;60.71
15487;BME280;7845;53.698;10.078;2023-04-27T10:34:50;101561.69;;;17.07;56.33
15487;BME280;7845;53.698;10.078;2023-04-27T10:37:17;101563.38;;;17.11;54.24
15487;BME280;7845;53.698;10.078;2023-04-27T10:39:49;101554.25;;;16.86;53.56
15487;BME280;7845;53.698;10.078;2023-04-27T10:42:27;101560.53;;;16.80;53.23
15487;BME280;7845;53.698;10.078;2023-04-27T10:44:55;101569.06;;;17.31;54.43
15487;BME280;7845;53.698;10.078;2023-04-27T10:47:21;101565.72;;;16.83;52.17
15487;BME280;7845;53.698;10.078;2023-04-27T10:49:52;101578.53;;;16.58;54.31
15487;BME280;7845;53.698;10.078;2023-04-27T10:52:21;101582.13;;;16.53;53.64
15487;BME280;7845;53.698;10.078;2023-04-27T10:54:46;101578.56;;;16.10;53.35
15487;BME280;7845;53.698;10.078;2023-04-27T10:57:12;101607.47;;;16.11;56.18
15487;BME280;7845;53.698;10.078;2023-04-27T10:59:51;101614.56;;;16.08;57.65
15487;BME280;7845;53.698;10.078;2023-04-27T11:02:25;101612.69;;;16.16;57.32
15487;BME280;7845;53.698;10.078;2023-04-27T11:04:51;101620.69;;;16.10;58.14
15487;BME280;7845;53.698;10.078;2023-04-27T11:07:26;101624.88;;;16.21;61.17
15487;BME280;7845;53.698;10.078;2023-04-27T11:09:53;101621.88;;;15.89;58.92
15487;BME280;7845;53.698;10.078;2023-04-27T11:12:20;101639.00;;;15.61;60.90
15487;BME280;7845;53.698;10.078;2023-04-27T11:14:45;101639.28;;;15.39;63.32
15487;BME280;7845;53.698;10.078;2023-04-27T11:17:10;101638.88;;;15.70;62.90
15487;BME280;7845;53.698;10.078;2023-04-27T11:19:47;101643.25;;;15.71;64.31
15487;BME280;7845;53.698;10.078;2023-04-27T11:22:13;101643.72;;;15.97;63.53
15487;BME280;7845;53.698;10.078;2023-04-27T11:24:48;101624.22;;;16.07;61.69
15487;BME280;7845;53.698;10.078;2023-04-27T11:27:18;101619.78;;;16.61;62.54
15487;BME280;7845;53.698;10.078;2023-04-27T11:29:46;101613.75;;;16.53;61.59
15487;BME280;7845;53.698;10.078;2023-04-27T11:32:21;101632.38;;;15.31;63.73
15487;BME280;7845;53.698;10.078;2023-04-27T11:34:51;101637.13;;;15.69;64.99
15487;BME280;7845;53.698;10.078;2023-04-27T11:37:22;101628.91;;;16.42;66.29
15487;BME280;7845;53.698;10.078;2023-04-27T11:39:50;101624.97;;;16.66;64.29
15487;BME280;7845;53.698;10.078;2023-04-27T11:45:00;101630.06;;;16.26;63.67
15487;BME280;7845;53.698;10.078;2023-04-27T11:47:29;101635.00;;;16.44;63.77
15487;BME280;7845;53.698;10.078;2023-04-27T11:49:59;101630.84;;;16.31;63.82
15487;BME280;7845;53.698;10.078;2023-04-27T11:52:32;101617.78;;;16.74;64.41
15487;BME280;7845;53.698;10.078;2023-04-27T11:54:59;101612.25;;;17.27;63.33
15487;BME280;7845;53.698;10.078;2023-04-27T11:57:26;101617.19;;;17.82;62.73
15487;BME280;7845;53.698;10.078;2023-04-27T11:59:54;101606.34;;;17.93;60.29
15487;BME280;7845;53.698;10.078;2023-04-27T12:02:20;101585.06;;;17.63;55.82
15487;BME280;7845;53.698;10.078;2023-04-27T12:04:47;101593.41;;;17.82;55.02
15487;BME280;7845;53.698;10.078;2023-04-27T12:07:13;101581.94;;;17.45;54.49
15487;BME280;7845;53.698;10.078;2023-04-27T12:09:39;101608.00;;;17.61;57.04
15487;BME280;7845;53.698;10.078;2023-04-27T12:12:05;101593.13;;;17.94;55.74
15487;BME280;7845;53.698;10.078;2023-04-27T12:14:31;101588.34;;;18.08;54.89
15487;BME280;7845;53.698;10.078;2023-04-27T12:16:56;101601.28;;;17.85;55.22
15487;BME280;7845;53.698;10.078;2023-04-27T12:19:21;101609.03;;;17.56;55.61
15487;BME280;7845;53.698;10.078;2023-04-27T12:21:50;101599.00;;;18.05;54.07
15487;BME280;7845;53.698;10.078;2023-04-27T12:24:15;101603.63;;;17.96;53.27
15487;BME280;7845;53.698;10.078;2023-04-27T12:26:40;101614.09;;;17.63;53.60
15487;BME280;7845;53.698;10.078;2023-04-27T12:29:06;101604.19;;;17.73;52.95
15487;BME280;7845;53.698;10.078;2023-04-27T12:31:31;101616.75;;;17.63;55.28
15487;BME280;7845;53.698;10.078;2023-04-27T12:33:57;101622.72;;;17.72;55.83
15487;BME280;7845;53.698;10.078;2023-04-27T12:36:24;101616.16;;;17.49;55.81
15487;BME280;7845;53.698;10.078;2023-04-27T12:38:53;101624.09;;;17.48;58.18
15487;BME280;7845;53.698;10.078;2023-04-27T12:41:18;101624.06;;;17.09;57.54
15487;BME280;7845;53.698;10.078;2023-04-27T12:43:45;101635.94;;;16.89;58.91
15487;BME280;7845;53.698;10.078;2023-04-27T12:46:10;101630.84;;;17.62;57.83
15487;BME280;7845;53.698;10.078;2023-04-27T12:48:36;101629.38;;;17.49;57.06
15487;BME280;7845;53.698;10.078;2023-04-27T12:51:02;101633.22;;;17.35;58.32
15487;BME280;7845;53.698;10.078;2023-04-27T12:53:27;101641.38;;;16.80;57.30
15487;BME280;7845;53.698;10.078;2023-04-27T12:55:52;101637.69;;;16.90;56.54
15487;BME280;7845;53.698;10.078;2023-04-27T12:58:18;101649.28;;;16.31;58.24
15487;BME280;7845;53.698;10.078;2023-04-27T13:00:44;101645.84;;;16.27;57.99